This is the latest recevied weather packets stored in our database for station/object N4ZIQ. If no packets are shown the sender has not sent any weather packets the latest 10 day(s).
| Time | Temp. | Humidity | Pressure | Rain* | Wind** | Luminosity | Snow |
|---|---|---|---|---|---|---|---|
| 1777481745 | 28.89° C | 61% | 1016.5 hPa | 0 mm | - | 823 W/m² | - |
| 1777481445 | 28.89° C | 59% | 1016.5 hPa | 0 mm | - | 867 W/m² | - |
| 1777481157 | 28.33° C | 60% | 1016.7 hPa | 0 mm | - | 925 W/m² | - |
| 1777480844 | 29.44° C | 59% | 1016.7 hPa | 0 mm | - | 223 W/m² | - |
| 1777480544 | 28.33° C | 61% | 1016.8 hPa | 0 mm | - | 853 W/m² | - |
| 1777480254 | 28.89° C | 59% | 1016.9 hPa | 0 mm | - | 853 W/m² | - |
| 1777479943 | 28.89° C | 58% | 1017.1 hPa | 0 mm | - | 840 W/m² | - |
| 1777479643 | 28.89° C | 58% | 1017.2 hPa | 0 mm | - | 837 W/m² | - |
| 1777479354 | 28.33° C | 61% | 1017.2 hPa | 0 mm | - | 846 W/m² | - |
| 1777479043 | 28.33° C | 60% | 1017.4 hPa | 0 mm | - | 831 W/m² | - |
| 1777478744 | 27.78° C | 60% | 1017.4 hPa | 0 mm | - | 789 W/m² | - |
| 1777478455 | 27.22° C | 60% | 1017.5 hPa | 0 mm | - | 731 W/m² | - |
| 1777478143 | 27.78° C | 61% | 1017.5 hPa | 0 mm | - | 761 W/m² | - |
| 1777477843 | 27.78° C | 60% | 1017.6 hPa | 0 mm | - | 780 W/m² | - |
| 1777477554 | 28.33° C | 62% | 1017.7 hPa | 0 mm | - | 770 W/m² | - |
| 1777477242 | 27.22° C | 64% | 1017.8 hPa | 0 mm | - | 749 W/m² | - |
| 1777476944 | 27.22° C | 63% | 1017.8 hPa | 0 mm | - | 756 W/m² | - |
| 1777476659 | 27.78° C | 63% | 1017.9 hPa | 0 mm | - | 745 W/m² | - |
| 1777476344 | 27.22° C | 63% | 1017.9 hPa | 0 mm | - | 775 W/m² | - |
| 1777476045 | 27.22° C | 65% | 1018 hPa | 0 mm | - | 766 W/m² | - |
| 1777475753 | 27.22° C | 64% | 1018.1 hPa | 0 mm | - | 758 W/m² | - |
| 1777475444 | 27.78° C | 65% | 1018.2 hPa | 0 mm | - | 754 W/m² | - |
| 1777475146 | 26.67° C | 68% | 1018.1 hPa | 0 mm | - | 738 W/m² | - |
| 1777474855 | 27.22° C | 66% | 1018.2 hPa | 0 mm | - | 696 W/m² | - |
| 1777474543 | 26.67° C | 70% | 1018.2 hPa | 0 mm | - | 689 W/m² | - |
* Rain latest hour (hover to see other rain measurements)
** Current wind speed in m/s (hover to see current wind gust speed)